Urutai, Brazil
Current Conditions -  °F | °C
As of 1:00 PM on Thursday 23 Oct 2014 (Local Time) from SBGO Reporting Station
Broken Clouds Broken Clouds  
Wind Chill: 82°   Ceiling: 10000
Heat Index: 83°   Visibility: 6mi
Dew Point: 61°   Wind: 5mph
Humidity: 48%   Direction: 120°ESE
Pressure: 30.09"   Gusts: NA
Location:  17.46°S, 48.2°W
Report Text: SBGO 231500Z 12004KT 9999 FEW040 FEW045TCU BKN100 28/16 Q1019
Loading
Personal Weather Stations






























Interactive Weather Map
Tropical Storm Tracking
New forecast layout! Learn more

10-Day Weather Forecast

Advertisements
Track Severe Weather on mobile